Monday, August 29, 2016
18:04 UTC
  |  Log In   |  Register Free
Airport Search:

Mackall Aaf Airport
(KHFF)

Mackall Aaf Airport Diagram
No Airport Diagram Available

FAA data valid effective Jul 21 2016 - Sep 15 2016 (unless otherwise noted).

 
 
 
 
 
 
 
 
 
 
 
 
 
 
Summary: Mackall Aaf (HFF)

Weather Summary


METAR for HFF is not available. Closest METAR is for
METAR

METAR KHFF 291756Z 01006G14KT 10SM SCT150 31/15 A3011 RMK AO2 LTG DSNT S SLP208 T03130146 10317 20238 57011

METAR KHFF 291656Z 02010G14KT 10SM FEW160 31/18 A3012 RMK AO2 SLP212 T03120181

METAR KHFF 291641Z 33008G15KT 10SM CLR 31/17 A3012 RMK AO2 LTG DSNT E

METAR KHFF 291556Z 36011G14KT 10SM FEW035 SCT150 31/18 A3014 RMK AO2 SLP218 T03060183

METAR KAFP 291740Z 29005KT 10SM CLR 31/17 A3012 RMK AO2 T03060173

METAR KBBP 291755Z 33008KT 10SM CLR 34/17 A3009 RMK AO2 LTG DSNT S

METAR KCQW 291755Z 02005KT 10SM CLR 30/14 A3011 RMK AO2

TAF for HFF is not available.
TAF

KPOB - TAF KPOB 291700Z 2917/3023 03009KT 9999 FEW010 SCT060 OVC150 QNH3003INS

KPOB - TEMPO 2921/2924 05010G15KT 8000 -SHRA FEW010 BKN020

KPOB - BECMG 3000/3001 06006KT 9999 FEW020 QNH3004INS

KPOB - BECMG 3010/3011 05004KT 6000 BR BKN010 QNH3006INS

KPOB - BECMG 3013/3014 04010G15KT 9999 NSW FEW050 SCT100 QNH2997INS TX31/2918Z TN22/3011Z =

KFBG - TAF KFBG 291700Z 2917/3023 03009KT 9999 FEW010 SCT060 OVC150 QNH3003INS

KFBG - TEMPO 2921/2924 05010G15KT 8000 -SHRA FEW010 BKN020

KFBG - BECMG 3000/3001 06006KT 9999 FEW020 QNH3004INS

KFBG - BECMG 3010/3011 05004KT 6000 BR BKN010 QNH3006INS

KFBG - BECMG 3013/3014 04010G15KT 9999 NSW FEW050 SCT100 QNH2997INS TX31/2918Z TN22/3011Z =

KFAY - TAF KFAY 291720Z 2918/3018 01010KT P6SM VCSH SCT035

KFAY - FM300000 04005KT P6SM BKN150

KFAY - TEMPO 3010/3014 BKN010 =

KLBT - TAF KLBT 291725Z 2918/3018 03010KT P6SM SCT035 SCT070

KLBT - FM300000 06003KT P6SM SCT060 SCT120

KLBT - FM300900 02003KT 5SM BR BKN008

KLBT - FM301330 04008KT P6SM SCT020 SCT180 =

GlobalAir.com is loading additional information.
 Current Weather at HFF
88.0 F° (31.2 C°)
A Few Clouds
North winds at 11.5 mph
Pressure:
30.12 in
Humidity:
46%
Wind:
from the North at 11.5 gusting to 16.1 MPH (10 gusting to 14 KT)
Dew Point:
64.6 F° (18.1 C°)
Visibility:
10.00 mi
HFF NOAA Radar

Runway Summary

ID Dimensions Surface Instrument Approaches
04/22 150 ft x 4996 ft Asphalt NDB OR GPS RWY 11
16/34 150 ft x 4916 ft Bituminous Concrete NDB OR GPS RWY 11
11/29 150 ft x 4794 ft Bituminous Concrete NDB OR GPS RWY 11
NDB OR GPS RWY 11

Communications Summary


CTAF121.00
UNICOMN/A
ATIS141.4
MACKALL GROUND128.35 [1310-0500Z++MON-SAT, EXC FED HOL.]
MACKALL TOWER121.0 [1310-0500Z++MON-SAT, EXC FED HOL.]
FAYETTEVILLE APPROACH127.8
FAYETTEVILLE DEPARTURE127.8
CLEARANCE DELIVERYN/A

Terminal Procedures Summary


Approaches

Closest Alternate Airports with Instrument Procedures

KSOP - Moore County - 15.2 nm NE from HFF

K5W4 - P K Airpark - 17.4 nm SE from HFF

K45J - Richmond County - 17.9 nm SW from HFF

KMEB - Laurinburg-Maxton - 18.5 nm SE from HFF

KBBP - Marlboro County Jetport - H.E. Avent Field - 31.7 nm SW from HFF

KAFP - Anson County - 32.8 nm SW from HFF

KCQW - Cheraw Municipal/Lynch Bellinger Field - 34.4 nm SW from HFF

KFAY - Fayetteville Regional/Grannis Field - 35.1 nm SE from HFF

KLBT - Lumberton Municipal - 38.6 nm SE from HFF

KDLC - Dillon County - 41.3 nm SE from HFF

Find All Airport Services Find A Hotel Find A Rental Car Find A Golf Course Find A Restaurant $100 Hamburger



FBO's on the Field
FBO Company Facility Photos Services Transportation Aviation Fuel Prices: Prices include tax
Catering Weather Repair Courtesy Rental Type 100LL JetA JetA+ MOGAS 8087
 
Add another FBO Facility Photos Catering Weather Repair Courtesy Rental Type 100LL JetA JetA+ MOGAS 8087
Services Transportation Aviation Fuel Prices: Prices include tax
There are no FBO's currently reporting fuel at HFF. List your FBO now


model-print
model-print
model-print
model-print